createdAt,value
2018-06-14T00:01:17.918Z,70.70
2018-06-14T00:03:47.702Z,70.60
2018-06-14T00:06:16.871Z,71.00
2018-06-14T00:08:46.111Z,70.80
2018-06-14T00:11:15.291Z,71.00
2018-06-14T00:13:44.761Z,71.70
2018-06-14T00:16:13.952Z,72.30
2018-06-14T00:18:43.272Z,71.30
2018-06-14T00:21:12.439Z,71.90
2018-06-14T00:23:41.611Z,72.70
2018-06-14T00:26:10.863Z,72.10
2018-06-14T00:28:40.187Z,72.80
2018-06-14T00:31:09.483Z,71.50
2018-06-14T00:33:39.387Z,71.80
2018-06-14T00:36:08.565Z,72.50
2018-06-14T00:38:37.726Z,72.50
2018-06-14T00:41:06.962Z,74.00
2018-06-14T00:43:36.160Z,74.30
2018-06-14T00:46:05.346Z,75.60
2018-06-14T00:48:35.103Z,75.10
2018-06-14T00:51:04.303Z,75.40
2018-06-14T00:53:33.480Z,75.00
2018-06-14T00:56:03.135Z,74.80
2018-06-14T00:58:33.247Z,74.60
2018-06-14T01:01:02.427Z,73.50
2018-06-14T01:03:31.618Z,73.30
2018-06-14T01:06:00.779Z,75.00
2018-06-14T01:08:30.004Z,75.90
2018-06-14T01:10:59.731Z,76.40
2018-06-14T01:13:28.971Z,75.50
2018-06-14T01:15:58.191Z,74.90
2018-06-14T01:18:28.098Z,76.50
2018-06-14T01:20:57.294Z,77.10
2018-06-14T01:23:26.510Z,76.80
2018-06-14T01:28:24.570Z,76.70
2018-06-14T01:30:53.744Z,75.90
2018-06-14T01:33:23.371Z,75.70
2018-06-14T01:35:53.571Z,77.60
2018-06-14T01:38:25.825Z,76.50
2018-06-14T01:40:55.222Z,77.10
2018-06-14T01:43:24.390Z,76.60
2018-06-14T01:45:53.572Z,76.10
2018-06-14T01:48:22.739Z,76.50
2018-06-14T01:50:52.906Z,76.40
2018-06-14T01:53:22.227Z,76.50
2018-06-14T01:55:51.398Z,77.40
2018-06-14T01:58:21.083Z,76.60
2018-06-14T02:00:50.281Z,78.00
2018-06-14T02:03:19.489Z,77.30
2018-06-14T02:05:48.659Z,77.40
2018-06-14T02:08:17.855Z,77.10
2018-06-14T02:10:47.054Z,77.30
2018-06-14T02:13:16.295Z,78.20
2018-06-14T02:15:45.566Z,79.10
2018-06-14T02:18:14.722Z,81.40
2018-06-14T02:20:43.903Z,80.20
2018-06-14T02:23:13.087Z,79.60
2018-06-14T02:25:42.261Z,78.30
2018-06-14T02:30:40.218Z,80.50
2018-06-14T02:33:10.051Z,82.30
2018-06-14T02:35:39.196Z,81.10
2018-06-14T02:38:08.671Z,79.70
2018-06-14T02:40:37.931Z,80.50
2018-06-14T02:43:07.099Z,79.50
2018-06-14T02:45:36.283Z,80.20
2018-06-14T02:48:05.523Z,81.00
2018-06-14T02:50:34.695Z,81.00
2018-06-14T02:53:04.679Z,82.50
2018-06-14T02:55:33.907Z,84.50
2018-06-14T02:58:03.183Z,86.40
2018-06-14T03:00:32.962Z,84.10
2018-06-14T03:03:02.184Z,83.90
2018-06-14T03:05:32.167Z,83.90
2018-06-14T03:08:02.392Z,82.80
2018-06-14T03:10:31.560Z,84.10
2018-06-14T03:13:01.750Z,83.30
2018-06-14T03:15:31.213Z,84.10
2018-06-14T03:18:00.376Z,85.20
2018-06-14T03:20:29.551Z,84.70
2018-06-14T03:22:59.431Z,84.70
2018-06-14T03:25:28.587Z,84.20
2018-06-14T03:27:57.755Z,83.70
2018-06-14T03:30:27.002Z,86.40
2018-06-14T03:35:24.935Z,85.60
2018-06-14T03:37:54.110Z,88.20
2018-06-14T03:40:23.306Z,87.80
2018-06-14T03:42:52.543Z,86.70
2018-06-14T03:45:26.043Z,85.80
2018-06-14T03:47:55.233Z,85.60
2018-06-14T03:50:24.389Z,85.40
2018-06-14T03:52:53.728Z,85.70
2018-06-14T03:55:22.959Z,86.60
2018-06-14T03:57:52.571Z,88.60
2018-06-14T04:00:23.005Z,86.00
2018-06-14T04:02:52.623Z,86.80
2018-06-14T04:05:21.803Z,88.40
2018-06-14T04:07:51.151Z,88.70
2018-06-14T04:10:20.370Z,87.50
2018-06-14T04:12:50.127Z,86.90
2018-06-14T04:15:19.339Z,86.10
2018-06-14T04:17:53.266Z,86.50
2018-06-14T04:20:22.502Z,86.20
2018-06-14T04:22:52.016Z,86.00
2018-06-14T04:25:21.211Z,86.30
2018-06-14T04:27:50.502Z,88.00
2018-06-14T04:30:19.679Z,87.80
2018-06-14T04:32:48.898Z,87.50
2018-06-14T04:35:18.129Z,86.20
2018-06-14T04:37:47.938Z,85.70
2018-06-14T04:40:17.115Z,85.60
2018-06-14T04:42:46.334Z,85.60
2018-06-14T04:45:15.516Z,86.80
2018-06-14T04:47:44.684Z,87.30
2018-06-14T04:50:13.927Z,87.60
2018-06-14T04:52:43.069Z,87.00
2018-06-14T04:55:12.243Z,89.20
2018-06-14T04:57:41.464Z,86.80
2018-06-14T05:00:10.728Z,87.00
2018-06-14T05:05:09.187Z,87.00
2018-06-14T05:07:38.378Z,86.60
2018-06-14T05:10:07.539Z,85.60
2018-06-14T05:12:36.962Z,85.80
2018-06-14T05:15:06.348Z,85.70
2018-06-14T05:17:35.854Z,85.60
2018-06-14T05:20:05.443Z,85.80
2018-06-14T05:22:34.603Z,85.60
2018-06-14T05:25:03.868Z,85.50
2018-06-14T05:27:33.063Z,85.30
2018-06-14T05:30:02.265Z,84.60
2018-06-14T05:32:31.730Z,83.80
2018-06-14T05:35:01.223Z,83.40
2018-06-14T05:37:30.388Z,83.00
2018-06-14T05:40:00.108Z,82.20
2018-06-14T05:42:29.322Z,81.30
2018-06-14T05:44:58.471Z,81.20
2018-06-14T05:47:27.654Z,81.30
2018-06-14T05:49:56.853Z,81.00
2018-06-14T05:52:26.264Z,81.20
2018-06-14T05:54:55.495Z,81.20
2018-06-14T05:57:25.024Z,80.90
2018-06-14T05:59:54.216Z,79.20
2018-06-14T06:02:23.390Z,79.70
2018-06-14T06:04:52.743Z,79.00
2018-06-14T06:07:22.170Z,79.00
2018-06-14T06:09:51.360Z,78.20
2018-06-14T06:12:27.888Z,78.10
2018-06-14T06:14:57.477Z,76.50
2018-06-14T06:17:26.694Z,76.70
2018-06-14T06:19:55.896Z,75.80
2018-06-14T06:22:25.443Z,76.10
2018-06-14T06:24:54.805Z,74.30
2018-06-14T06:27:24.023Z,71.30
2018-06-14T06:29:53.566Z,70.60
2018-06-14T06:32:23.079Z,72.10
2018-06-14T06:34:52.662Z,70.20
2018-06-14T06:37:21.871Z,71.50
2018-06-14T06:39:51.158Z,70.50
2018-06-14T06:42:20.783Z,69.30
2018-06-14T06:44:50.030Z,69.40
2018-06-14T06:47:19.215Z,69.10
2018-06-14T06:49:48.423Z,69.10
2018-06-14T06:52:17.639Z,70.10
2018-06-14T06:54:47.278Z,68.20
2018-06-14T06:57:16.636Z,69.10
2018-06-14T06:59:45.820Z,65.90
2018-06-14T07:02:15.095Z,66.60
2018-06-14T07:04:44.291Z,64.10
2018-06-14T07:07:13.446Z,64.60
2018-06-14T07:09:43.103Z,65.40
2018-06-14T07:12:12.266Z,64.30
2018-06-14T07:14:41.441Z,63.80
2018-06-14T07:17:11.142Z,64.80
2018-06-14T07:19:40.536Z,63.50
2018-06-14T07:22:09.699Z,63.10
2018-06-14T07:24:38.864Z,62.50
2018-06-14T07:27:08.048Z,64.00
2018-06-14T07:29:37.883Z,60.40
2018-06-14T07:32:07.879Z,56.50
2018-06-14T07:34:37.104Z,59.10
2018-06-14T07:37:06.247Z,60.80
2018-06-14T07:39:35.410Z,58.30
2018-06-14T07:42:05.164Z,59.30
2018-06-14T07:44:34.391Z,57.90
2018-06-14T07:47:03.629Z,57.80
2018-06-14T07:49:32.798Z,56.30
2018-06-14T07:52:02.010Z,57.90
2018-06-14T07:54:31.169Z,57.80
2018-06-14T07:57:02.076Z,58.50
2018-06-14T07:59:31.275Z,57.20
2018-06-14T08:02:00.471Z,56.40
2018-06-14T08:04:30.223Z,51.80
2018-06-14T08:06:59.420Z,51.30
2018-06-14T08:09:28.548Z,51.10
2018-06-14T08:11:58.083Z,51.80
2018-06-14T08:14:27.933Z,52.40
2018-06-14T08:16:58.199Z,53.50
2018-06-14T08:19:28.172Z,51.20
2018-06-14T08:21:58.047Z,49.70
2018-06-14T08:24:28.591Z,51.60
2018-06-14T08:26:58.062Z,52.00
2018-06-14T08:29:27.255Z,52.00
2018-06-14T08:31:56.486Z,50.40
2018-06-14T08:34:25.658Z,49.70
2018-06-14T08:36:54.851Z,51.40
2018-06-14T08:39:25.071Z,52.60
2018-06-14T08:41:54.247Z,53.70
2018-06-14T08:44:23.467Z,53.20
2018-06-14T08:46:52.772Z,51.80
2018-06-14T08:51:50.851Z,48.40
2018-06-14T08:54:20.399Z,49.40
2018-06-14T08:56:49.595Z,49.60
2018-06-14T08:59:19.218Z,49.70
2018-06-14T09:01:48.419Z,49.80
2018-06-14T09:04:17.579Z,48.30
2018-06-14T09:09:16.523Z,46.40
2018-06-14T09:11:45.710Z,47.20
2018-06-14T09:14:15.227Z,48.60
2018-06-14T09:16:44.384Z,46.20
2018-06-14T09:19:13.559Z,46.30
2018-06-14T09:21:43.224Z,45.30
2018-06-14T09:24:12.754Z,46.00
2018-06-14T09:26:42.079Z,48.20
2018-06-14T09:29:11.861Z,47.80
2018-06-14T09:31:41.463Z,47.30
2018-06-14T09:34:10.649Z,48.20
2018-06-14T09:36:39.833Z,47.00
2018-06-14T09:39:09.901Z,48.10
2018-06-14T09:41:39.492Z,48.30
2018-06-14T09:44:08.709Z,47.80
2018-06-14T09:46:37.955Z,45.60
2018-06-14T09:49:12.435Z,46.90
2018-06-14T09:51:41.815Z,45.60
2018-06-14T09:54:11.019Z,47.30
2018-06-14T09:56:40.282Z,45.70
2018-06-14T09:59:09.689Z,43.40
2018-06-14T10:01:39.080Z,45.40
2018-06-14T10:04:08.355Z,45.50
2018-06-14T10:06:37.632Z,47.50
2018-06-14T10:09:08.691Z,47.30
2018-06-14T10:11:38.254Z,44.50
2018-06-14T10:14:08.049Z,43.20
2018-06-14T10:16:37.704Z,42.90
2018-06-14T10:19:07.089Z,44.40
2018-06-14T10:21:36.306Z,42.60
2018-06-14T10:24:05.523Z,42.30
2018-06-14T10:26:34.726Z,41.70
2018-06-14T10:29:03.903Z,44.10
2018-06-14T10:31:33.055Z,44.60
2018-06-14T10:34:02.635Z,45.90
2018-06-14T10:36:31.814Z,41.20
2018-06-14T10:39:01.031Z,42.50
2018-06-14T10:41:30.219Z,43.20
2018-06-14T10:43:59.399Z,44.70
2018-06-14T10:46:28.603Z,42.70
2018-06-14T10:48:57.826Z,41.40
2018-06-14T10:51:27.023Z,41.20
2018-06-14T10:53:56.222Z,41.10
2018-06-14T10:56:25.499Z,40.90
2018-06-14T10:58:54.678Z,40.10
2018-06-14T11:01:23.882Z,40.50
2018-06-14T11:03:53.215Z,41.20
2018-06-14T11:06:22.387Z,40.40
2018-06-14T11:08:51.611Z,41.30
2018-06-14T11:11:20.786Z,40.60
2018-06-14T11:13:50.959Z,41.70
2018-06-14T11:16:20.151Z,41.70
2018-06-14T11:18:50.306Z,40.20
2018-06-14T11:21:19.490Z,42.40
2018-06-14T11:23:48.999Z,42.80
2018-06-14T11:26:18.196Z,41.90
2018-06-14T11:28:47.399Z,42.20
2018-06-14T11:31:16.567Z,40.90
2018-06-14T11:33:46.815Z,42.00
2018-06-14T11:36:16.014Z,41.10
2018-06-14T11:38:45.214Z,40.20
2018-06-14T11:41:14.477Z,40.00
2018-06-14T11:43:43.983Z,40.20
2018-06-14T11:46:13.499Z,40.90
2018-06-14T11:48:43.099Z,40.10
2018-06-14T11:51:12.459Z,41.30
2018-06-14T11:53:43.963Z,42.00
2018-06-14T11:58:41.899Z,39.60
2018-06-14T12:01:11.191Z,39.50
2018-06-14T12:03:40.367Z,39.30
2018-06-14T12:06:09.559Z,40.40
2018-06-14T12:08:38.807Z,40.90
2018-06-14T12:11:08.862Z,41.50
2018-06-14T12:13:38.054Z,42.70
2018-06-14T12:16:09.491Z,41.00
2018-06-14T12:18:38.680Z,39.90
2018-06-14T12:21:08.115Z,39.40
2018-06-14T12:26:07.771Z,40.10
2018-06-14T12:28:37.203Z,39.00
2018-06-14T12:31:06.407Z,36.50
2018-06-14T12:33:36.224Z,36.90
2018-06-14T12:36:07.117Z,38.80
2018-06-14T12:38:36.639Z,41.00
2018-06-14T12:41:05.931Z,38.50
2018-06-14T12:43:35.198Z,39.70
2018-06-14T12:46:04.611Z,41.20
2018-06-14T12:48:35.114Z,38.90
2018-06-14T12:51:04.778Z,40.70
2018-06-14T12:53:34.083Z,40.90
2018-06-14T12:56:03.607Z,40.70
2018-06-14T12:58:32.884Z,37.60
2018-06-14T13:01:02.289Z,37.10
2018-06-14T13:03:31.838Z,38.60
2018-06-14T13:06:01.507Z,37.40
2018-06-14T13:08:30.940Z,37.10
2018-06-14T13:11:00.185Z,37.70
2018-06-14T13:13:30.407Z,40.60
2018-06-14T13:15:59.759Z,40.20
2018-06-14T13:18:28.959Z,37.80
2018-06-14T13:20:58.315Z,39.60
2018-06-14T13:23:28.489Z,37.40
2018-06-14T13:25:58.901Z,35.60
2018-06-14T13:28:29.131Z,33.70
2018-06-14T13:30:58.915Z,33.10
2018-06-14T13:33:28.090Z,35.80
2018-06-14T13:35:57.311Z,36.30
2018-06-14T13:38:27.187Z,34.20
2018-06-14T13:43:25.883Z,32.40
2018-06-14T13:45:55.435Z,32.10
2018-06-14T13:48:24.639Z,31.20
2018-06-14T13:50:53.870Z,27.50
2018-06-14T13:53:23.267Z,28.50
2018-06-14T13:55:52.494Z,29.70
2018-06-14T13:58:22.126Z,28.50
2018-06-14T14:00:52.583Z,29.20
2018-06-14T14:03:22.050Z,29.90
2018-06-14T14:05:52.624Z,30.50
2018-06-14T14:08:21.847Z,27.90
2018-06-14T14:10:51.278Z,26.40
2018-06-14T14:13:20.966Z,30.80
2018-06-14T14:15:51.348Z,29.90
2018-06-14T14:18:21.012Z,28.70
2018-06-14T14:20:50.507Z,28.80
2018-06-14T14:23:19.668Z,28.30
2018-06-14T14:25:49.091Z,29.40
2018-06-14T14:28:18.306Z,27.90
2018-06-14T14:30:47.695Z,28.60
2018-06-14T14:33:18.263Z,29.00
2018-06-14T14:35:47.591Z,26.40
2018-06-14T14:38:17.732Z,25.40
2018-06-14T14:40:46.932Z,25.20
2018-06-14T14:43:16.088Z,25.70
2018-06-14T14:45:45.758Z,24.20
2018-06-14T14:48:14.922Z,24.30
2018-06-14T14:50:44.170Z,24.60
2018-06-14T14:53:13.777Z,25.00
2018-06-14T14:55:42.866Z,25.10
2018-06-14T14:58:12.706Z,25.60
2018-06-14T15:03:11.087Z,28.40
2018-06-14T15:05:40.322Z,27.40
2018-06-14T15:08:09.694Z,28.80
2018-06-14T15:10:39.057Z,29.20
2018-06-14T15:13:08.412Z,25.10
2018-06-14T15:15:38.611Z,23.90
2018-06-14T15:18:08.167Z,25.00
2018-06-14T15:20:37.983Z,25.60
2018-06-14T15:23:07.334Z,25.10
2018-06-14T15:25:37.900Z,24.80
2018-06-14T15:28:07.514Z,24.80
2018-06-14T15:30:36.858Z,25.00
2018-06-14T15:33:06.079Z,25.40
2018-06-14T15:35:36.012Z,24.50
2018-06-14T15:38:06.242Z,25.20
2018-06-14T15:40:35.786Z,25.20
2018-06-14T15:43:05.105Z,26.10
2018-06-14T15:45:34.450Z,26.30
2018-06-14T15:48:03.775Z,26.40
2018-06-14T15:50:32.998Z,27.00
2018-06-14T15:53:02.659Z,27.70
2018-06-14T15:55:56.198Z,28.60
2018-06-14T16:00:54.491Z,26.60
2018-06-14T16:03:25.581Z,27.00
2018-06-14T16:05:55.864Z,27.30
2018-06-14T16:08:25.145Z,25.80
2018-06-14T16:10:55.588Z,26.00
2018-06-14T16:13:24.982Z,25.90
2018-06-14T16:15:57.156Z,25.30
2018-06-14T16:18:27.987Z,25.30
2018-06-14T16:20:57.182Z,26.90
2018-06-14T16:23:26.684Z,25.60
2018-06-14T16:25:56.542Z,26.00
2018-06-14T16:28:26.347Z,26.50
2018-06-14T16:30:55.667Z,27.70
2018-06-14T16:33:24.983Z,28.90
2018-06-14T16:35:54.286Z,29.30
2018-06-14T16:38:23.786Z,30.00
2018-06-14T16:40:53.150Z,29.50
2018-06-14T16:43:22.446Z,29.10
2018-06-14T16:45:51.938Z,28.30
2018-06-14T16:48:21.691Z,28.70
2018-06-14T16:50:51.229Z,29.20
2018-06-14T16:53:21.618Z,29.70
2018-06-14T16:55:51.243Z,30.10
2018-06-14T16:58:20.803Z,29.50
2018-06-14T17:00:50.418Z,29.80
2018-06-14T17:03:19.897Z,29.10
2018-06-14T17:05:49.191Z,29.70
2018-06-14T17:08:18.627Z,30.50
2018-06-14T17:10:48.133Z,31.40
2018-06-14T17:13:17.455Z,32.60
2018-06-14T17:15:47.987Z,32.10
2018-06-14T17:18:17.271Z,32.80
2018-06-14T17:20:46.530Z,31.50
2018-06-14T17:23:16.435Z,31.00
2018-06-14T17:25:45.802Z,31.80
2018-06-14T17:28:15.050Z,30.50
2018-06-14T17:30:46.768Z,30.20
2018-06-14T17:33:16.131Z,30.30
2018-06-14T17:35:45.402Z,30.50
2018-06-14T17:38:14.754Z,30.20
2018-06-14T17:40:44.056Z,30.60
2018-06-14T17:43:13.767Z,31.60
2018-06-14T17:45:43.502Z,32.00
2018-06-14T17:48:13.626Z,32.70
2018-06-14T17:50:43.171Z,32.90
2018-06-14T17:53:13.408Z,33.30
2018-06-14T17:55:42.649Z,34.20
2018-06-14T17:58:11.995Z,34.60
2018-06-14T18:00:41.248Z,35.40
2018-06-14T18:03:14.507Z,35.90
2018-06-14T18:05:43.924Z,36.50
2018-06-14T18:08:13.493Z,36.40
2018-06-14T18:10:42.695Z,36.90
2018-06-14T18:13:12.539Z,37.20
2018-06-14T18:15:42.333Z,38.10
2018-06-14T18:18:11.497Z,38.20
2018-06-14T18:20:41.332Z,38.90
2018-06-14T18:23:10.858Z,39.60
2018-06-14T18:25:41.306Z,39.90
2018-06-14T18:28:11.167Z,39.70
2018-06-14T18:30:40.505Z,40.50
2018-06-14T18:33:09.896Z,40.30
2018-06-14T18:35:39.497Z,40.80
2018-06-14T18:38:08.730Z,41.30
2018-06-14T18:40:38.659Z,41.40
2018-06-14T18:43:07.939Z,41.90
2018-06-14T18:48:07.197Z,42.10
2018-06-14T18:50:36.447Z,42.50
2018-06-14T18:53:05.968Z,42.50
2018-06-14T18:58:04.064Z,42.50
2018-06-14T19:03:04.203Z,43.00
2018-06-14T19:05:34.711Z,43.20
2018-06-14T19:08:04.334Z,43.30
2018-06-14T19:10:34.563Z,43.70
2018-06-14T19:13:03.809Z,43.90
2018-06-14T19:15:35.020Z,44.00
2018-06-14T19:18:05.080Z,44.10
2018-06-14T19:20:34.599Z,44.50
2018-06-14T19:23:04.123Z,44.70
2018-06-14T19:25:33.435Z,43.40
2018-06-14T19:28:02.607Z,42.90
2018-06-14T19:30:32.099Z,42.80
2018-06-14T19:33:01.290Z,42.90
2018-06-14T19:35:30.602Z,43.40
2018-06-14T19:37:59.965Z,43.50
2018-06-14T19:40:29.223Z,43.90
2018-06-14T19:42:58.492Z,43.40
2018-06-14T19:45:27.823Z,43.30
2018-06-14T19:47:58.127Z,43.00
2018-06-14T19:50:27.474Z,42.90
2018-06-14T19:52:57.039Z,43.20
2018-06-14T19:55:26.280Z,43.60
2018-06-14T19:57:56.766Z,43.20
2018-06-14T20:00:30.148Z,43.70
2018-06-14T20:02:59.339Z,43.60
2018-06-14T20:05:28.644Z,43.90
2018-06-14T20:07:57.839Z,43.60
2018-06-14T20:10:27.266Z,43.70
2018-06-14T20:12:56.795Z,44.40
2018-06-14T20:15:27.458Z,43.80
2018-06-14T20:17:56.647Z,43.80
2018-06-14T20:20:26.363Z,44.00
2018-06-14T20:22:55.693Z,44.20
2018-06-14T20:25:24.899Z,44.00
2018-06-14T20:27:54.675Z,43.90
2018-06-14T20:30:24.347Z,44.60
2018-06-14T20:35:23.230Z,45.10
2018-06-14T20:37:53.063Z,45.10
2018-06-14T20:40:22.540Z,46.70
2018-06-14T20:42:51.910Z,45.30
2018-06-14T20:45:21.292Z,45.40
2018-06-14T20:47:50.710Z,46.40
2018-06-14T20:52:48.791Z,46.90
2018-06-14T20:55:18.050Z,48.90
2018-06-14T20:57:48.361Z,47.70
2018-06-14T21:02:50.351Z,48.30
2018-06-14T21:05:19.957Z,49.90
2018-06-14T21:07:49.519Z,48.90
2018-06-14T21:10:19.199Z,48.60
2018-06-14T21:12:48.383Z,48.20
2018-06-14T21:15:17.539Z,50.40
2018-06-14T21:17:46.726Z,50.60
2018-06-14T21:20:15.935Z,49.40
2018-06-14T21:22:45.114Z,49.00
2018-06-14T21:25:14.287Z,50.60
2018-06-14T21:27:43.550Z,49.50
2018-06-14T21:30:12.987Z,49.90
2018-06-14T21:32:42.175Z,49.30
2018-06-14T21:35:11.977Z,50.40
2018-06-14T21:37:41.171Z,50.00
2018-06-14T21:40:10.747Z,49.10
2018-06-14T21:42:40.047Z,49.30
2018-06-14T21:45:09.360Z,49.90
2018-06-14T21:47:38.552Z,49.50
2018-06-14T21:50:08.023Z,50.00
2018-06-14T21:52:38.084Z,49.30
2018-06-14T21:55:07.268Z,50.00
2018-06-14T21:57:36.499Z,50.00
2018-06-14T22:00:07.539Z,49.60
2018-06-14T22:02:41.775Z,49.80
2018-06-14T22:05:10.951Z,50.30
2018-06-14T22:07:40.375Z,50.10
2018-06-14T22:10:10.138Z,50.20
2018-06-14T22:12:39.307Z,50.20
2018-06-14T22:15:09.394Z,50.10
2018-06-14T22:17:38.591Z,50.70
2018-06-14T22:20:07.823Z,50.60
2018-06-14T22:22:36.987Z,50.80
2018-06-14T22:25:06.219Z,50.60
2018-06-14T22:27:35.399Z,51.20
2018-06-14T22:30:04.742Z,51.10
2018-06-14T22:32:34.322Z,50.70
2018-06-14T22:35:29.067Z,51.60
2018-06-14T22:37:58.762Z,51.70
2018-06-14T22:40:27.955Z,51.50
2018-06-14T22:42:57.130Z,51.30
2018-06-14T22:45:26.355Z,51.50
2018-06-14T22:47:55.546Z,51.60
2018-06-14T22:50:36.538Z,51.90
2018-06-14T22:53:07.978Z,51.40
2018-06-14T22:55:37.200Z,51.40
2018-06-14T22:58:06.642Z,52.00
2018-06-14T23:01:00.192Z,51.90
2018-06-14T23:03:29.328Z,53.00
2018-06-14T23:05:58.525Z,52.60
2018-06-14T23:08:28.314Z,52.70
2018-06-14T23:11:08.754Z,53.00
2018-06-14T23:13:37.871Z,52.80
2018-06-14T23:16:07.039Z,53.00
2018-06-14T23:18:36.296Z,52.70
2018-06-14T23:21:05.555Z,52.90
2018-06-14T23:23:34.751Z,53.90
2018-06-14T23:26:03.986Z,54.10
2018-06-14T23:28:33.282Z,53.60
2018-06-14T23:31:02.495Z,53.50
2018-06-14T23:33:31.678Z,55.50
2018-06-14T23:36:01.808Z,54.70
2018-06-14T23:38:32.034Z,54.40
2018-06-14T23:41:01.867Z,54.30
2018-06-14T23:43:31.046Z,54.30
2018-06-14T23:46:00.227Z,54.20
2018-06-14T23:48:30.770Z,54.50
2018-06-14T23:51:00.503Z,54.90
2018-06-14T23:53:29.707Z,54.30
2018-06-14T23:55:59.943Z,54.40
2018-06-14T23:58:29.087Z,54.70
